sensor_id;sensor_type;location;lat;lon;timestamp;P1;durP1;ratioP1;P2;durP2;ratioP2
11267;SDS011;49397;47.474;9.416;2023-02-24T00:01:49;13.97;;;9.87;;
11267;SDS011;49397;47.474;9.416;2023-02-24T00:04:16;26.43;;;13.40;;
11267;SDS011;49397;47.474;9.416;2023-02-24T00:06:44;22.30;;;13.07;;
11267;SDS011;49397;47.474;9.416;2023-02-24T00:09:20;28.50;;;17.80;;
11267;SDS011;49397;47.474;9.416;2023-02-24T00:11:58;25.20;;;15.90;;
11267;SDS011;49397;47.474;9.416;2023-02-24T00:14:32;23.83;;;12.87;;
11267;SDS011;49397;47.474;9.416;2023-02-24T00:16:59;25.63;;;13.73;;
11267;SDS011;49397;47.474;9.416;2023-02-24T00:19:26;24.73;;;13.57;;
11267;SDS011;49397;47.474;9.416;2023-02-24T00:21:53;23.20;;;12.87;;
11267;SDS011;49397;47.474;9.416;2023-02-24T00:24:19;24.97;;;11.37;;
11267;SDS011;49397;47.474;9.416;2023-02-24T00:26:57;21.27;;;12.40;;
11267;SDS011;49397;47.474;9.416;2023-02-24T00:29:25;24.50;;;14.03;;
11267;SDS011;49397;47.474;9.416;2023-02-24T00:31:53;29.77;;;16.33;;
11267;SDS011;49397;47.474;9.416;2023-02-24T00:34:21;30.27;;;19.70;;
11267;SDS011;49397;47.474;9.416;2023-02-24T00:36:47;31.33;;;17.70;;
11267;SDS011;49397;47.474;9.416;2023-02-24T00:39:13;25.33;;;14.33;;
11267;SDS011;49397;47.474;9.416;2023-02-24T00:41:40;24.60;;;14.77;;
11267;SDS011;49397;47.474;9.416;2023-02-24T00:44:09;23.47;;;14.20;;
11267;SDS011;49397;47.474;9.416;2023-02-24T00:46:41;25.23;;;14.27;;
11267;SDS011;49397;47.474;9.416;2023-02-24T00:49:12;24.77;;;14.13;;
11267;SDS011;49397;47.474;9.416;2023-02-24T00:51:41;25.73;;;14.73;;
11267;SDS011;49397;47.474;9.416;2023-02-24T00:54:09;27.67;;;14.80;;
11267;SDS011;49397;47.474;9.416;2023-02-24T00:56:39;26.77;;;16.07;;
11267;SDS011;49397;47.474;9.416;2023-02-24T00:59:09;33.43;;;17.40;;
11267;SDS011;49397;47.474;9.416;2023-02-24T01:01:37;38.23;;;17.07;;
11267;SDS011;49397;47.474;9.416;2023-02-24T01:04:04;32.93;;;17.17;;
11267;SDS011;49397;47.474;9.416;2023-02-24T01:06:35;28.67;;;15.03;;
11267;SDS011;49397;47.474;9.416;2023-02-24T01:09:04;31.50;;;14.43;;
11267;SDS011;49397;47.474;9.416;2023-02-24T01:11:33;27.60;;;13.53;;
11267;SDS011;49397;47.474;9.416;2023-02-24T01:14:20;25.97;;;13.53;;
11267;SDS011;49397;47.474;9.416;2023-02-24T01:16:47;23.80;;;14.40;;
11267;SDS011;49397;47.474;9.416;2023-02-24T01:19:17;25.17;;;12.80;;
11267;SDS011;49397;47.474;9.416;2023-02-24T01:21:56;21.43;;;12.47;;
11267;SDS011;49397;47.474;9.416;2023-02-24T01:24:23;19.67;;;9.57;;
11267;SDS011;49397;47.474;9.416;2023-02-24T01:26:49;22.83;;;12.03;;
11267;SDS011;49397;47.474;9.416;2023-02-24T01:29:15;17.23;;;9.60;;
11267;SDS011;49397;47.474;9.416;2023-02-24T01:31:41;21.93;;;11.17;;
11267;SDS011;49397;47.474;9.416;2023-02-24T01:34:08;20.13;;;10.40;;
11267;SDS011;49397;47.474;9.416;2023-02-24T01:36:35;25.43;;;11.30;;
11267;SDS011;49397;47.474;9.416;2023-02-24T01:39:03;23.97;;;11.80;;
11267;SDS011;49397;47.474;9.416;2023-02-24T01:41:38;22.53;;;11.43;;
11267;SDS011;49397;47.474;9.416;2023-02-24T01:46:50;17.27;;;8.97;;
11267;SDS011;49397;47.474;9.416;2023-02-24T01:49:18;20.37;;;9.93;;
11267;SDS011;49397;47.474;9.416;2023-02-24T01:54:20;13.40;;;7.90;;
11267;SDS011;49397;47.474;9.416;2023-02-24T01:56:50;15.73;;;8.10;;
11267;SDS011;49397;47.474;9.416;2023-02-24T01:59:16;13.30;;;8.97;;
11267;SDS011;49397;47.474;9.416;2023-02-24T02:01:44;19.63;;;10.10;;
11267;SDS011;49397;47.474;9.416;2023-02-24T02:04:14;14.57;;;9.13;;
11267;SDS011;49397;47.474;9.416;2023-02-24T02:06:45;14.70;;;9.23;;
11267;SDS011;49397;47.474;9.416;2023-02-24T02:09:12;14.20;;;8.27;;
11267;SDS011;49397;47.474;9.416;2023-02-24T02:11:40;13.90;;;8.60;;
11267;SDS011;49397;47.474;9.416;2023-02-24T02:14:06;20.97;;;8.80;;
11267;SDS011;49397;47.474;9.416;2023-02-24T02:19:28;13.10;;;7.87;;
11267;SDS011;49397;47.474;9.416;2023-02-24T02:36:39;19.10;;;8.00;;
11267;SDS011;49397;47.474;9.416;2023-02-24T02:39:30;15.10;;;7.53;;
11267;SDS011;49397;47.474;9.416;2023-02-24T02:50:26;11.97;;;7.23;;
11267;SDS011;49397;47.474;9.416;2023-02-24T02:53:03;14.00;;;7.93;;
11267;SDS011;49397;47.474;9.416;2023-02-24T02:58:05;10.20;;;6.30;;
11267;SDS011;49397;47.474;9.416;2023-02-24T03:00:41;17.97;;;7.10;;
11267;SDS011;49397;47.474;9.416;2023-02-24T03:03:22;14.33;;;6.50;;
11267;SDS011;49397;47.474;9.416;2023-02-24T03:05:58;14.40;;;7.77;;
11267;SDS011;49397;47.474;9.416;2023-02-24T03:08:29;13.87;;;7.57;;
11267;SDS011;49397;47.474;9.416;2023-02-24T03:10:59;14.20;;;8.00;;
11267;SDS011;49397;47.474;9.416;2023-02-24T03:13:28;15.73;;;7.70;;
11267;SDS011;49397;47.474;9.416;2023-02-24T03:16:01;12.57;;;7.60;;
11267;SDS011;49397;47.474;9.416;2023-02-24T03:18:29;12.37;;;7.27;;
11267;SDS011;49397;47.474;9.416;2023-02-24T03:20:58;13.57;;;7.47;;
11267;SDS011;49397;47.474;9.416;2023-02-24T03:23:32;12.63;;;7.10;;
11267;SDS011;49397;47.474;9.416;2023-02-24T03:26:36;12.63;;;7.23;;
11267;SDS011;49397;47.474;9.416;2023-02-24T03:29:18;10.30;;;6.87;;
11267;SDS011;49397;47.474;9.416;2023-02-24T03:31:55;13.30;;;7.20;;
11267;SDS011;49397;47.474;9.416;2023-02-24T03:37:15;14.40;;;7.37;;
11267;SDS011;49397;47.474;9.416;2023-02-24T03:39:41;14.70;;;7.00;;
11267;SDS011;49397;47.474;9.416;2023-02-24T03:42:09;11.30;;;7.07;;
11267;SDS011;49397;47.474;9.416;2023-02-24T03:44:38;14.13;;;7.80;;
11267;SDS011;49397;47.474;9.416;2023-02-24T03:47:04;11.40;;;6.63;;
11267;SDS011;49397;47.474;9.416;2023-02-24T03:49:29;10.20;;;6.97;;
11267;SDS011;49397;47.474;9.416;2023-02-24T03:52:03;13.10;;;7.20;;
11267;SDS011;49397;47.474;9.416;2023-02-24T04:00:40;18.87;;;7.23;;
11267;SDS011;49397;47.474;9.416;2023-02-24T04:05:45;12.50;;;7.03;;
11267;SDS011;49397;47.474;9.416;2023-02-24T04:08:17;12.43;;;7.10;;
11267;SDS011;49397;47.474;9.416;2023-02-24T04:10:52;10.20;;;6.60;;
11267;SDS011;49397;47.474;9.416;2023-02-24T04:18:59;13.73;;;7.60;;
11267;SDS011;49397;47.474;9.416;2023-02-24T04:21:28;9.47;;;6.13;;
11267;SDS011;49397;47.474;9.416;2023-02-24T04:23:56;16.17;;;6.73;;
11267;SDS011;49397;47.474;9.416;2023-02-24T04:26:24;12.50;;;6.73;;
11267;SDS011;49397;47.474;9.416;2023-02-24T04:28:50;8.97;;;6.63;;
11267;SDS011;49397;47.474;9.416;2023-02-24T04:31:17;10.03;;;6.70;;
11267;SDS011;49397;47.474;9.416;2023-02-24T04:33:46;14.00;;;7.30;;
11267;SDS011;49397;47.474;9.416;2023-02-24T04:36:18;10.77;;;6.77;;
11267;SDS011;49397;47.474;9.416;2023-02-24T04:38:44;11.10;;;7.37;;
11267;SDS011;49397;47.474;9.416;2023-02-24T04:41:11;13.07;;;8.03;;
11267;SDS011;49397;47.474;9.416;2023-02-24T04:43:45;17.53;;;9.03;;
11267;SDS011;49397;47.474;9.416;2023-02-24T04:46:12;14.60;;;8.53;;
11267;SDS011;49397;47.474;9.416;2023-02-24T04:48:38;18.80;;;8.93;;
11267;SDS011;49397;47.474;9.416;2023-02-24T04:51:03;14.83;;;8.50;;
11267;SDS011;49397;47.474;9.416;2023-02-24T04:53:30;16.03;;;7.37;;
11267;SDS011;49397;47.474;9.416;2023-02-24T04:55:56;8.30;;;6.43;;
11267;SDS011;49397;47.474;9.416;2023-02-24T04:58:32;15.40;;;8.53;;
11267;SDS011;49397;47.474;9.416;2023-02-24T05:00:58;14.53;;;8.13;;
11267;SDS011;49397;47.474;9.416;2023-02-24T05:03:24;14.13;;;8.93;;
11267;SDS011;49397;47.474;9.416;2023-02-24T05:05:53;14.90;;;7.50;;
11267;SDS011;49397;47.474;9.416;2023-02-24T05:08:27;15.13;;;8.20;;
11267;SDS011;49397;47.474;9.416;2023-02-24T05:10:54;16.67;;;8.37;;
11267;SDS011;49397;47.474;9.416;2023-02-24T05:13:40;18.87;;;9.70;;
11267;SDS011;49397;47.474;9.416;2023-02-24T05:16:12;16.80;;;8.87;;
11267;SDS011;49397;47.474;9.416;2023-02-24T05:18:41;12.07;;;6.20;;
11267;SDS011;49397;47.474;9.416;2023-02-24T05:21:12;17.77;;;7.30;;
11267;SDS011;49397;47.474;9.416;2023-02-24T05:23:58;15.90;;;7.17;;
11267;SDS011;49397;47.474;9.416;2023-02-24T05:26:29;10.40;;;7.13;;
11267;SDS011;49397;47.474;9.416;2023-02-24T05:28:56;13.83;;;8.10;;
11267;SDS011;49397;47.474;9.416;2023-02-24T05:31:27;10.90;;;7.23;;
11267;SDS011;49397;47.474;9.416;2023-02-24T05:33:58;11.70;;;7.80;;
11267;SDS011;49397;47.474;9.416;2023-02-24T05:36:27;11.93;;;7.57;;
11267;SDS011;49397;47.474;9.416;2023-02-24T05:38:56;13.73;;;8.03;;
11267;SDS011;49397;47.474;9.416;2023-02-24T05:41:22;13.83;;;7.70;;
11267;SDS011;49397;47.474;9.416;2023-02-24T05:43:56;16.63;;;8.43;;
11267;SDS011;49397;47.474;9.416;2023-02-24T05:46:27;11.47;;;8.03;;
11267;SDS011;49397;47.474;9.416;2023-02-24T05:48:54;15.07;;;9.17;;
11267;SDS011;49397;47.474;9.416;2023-02-24T05:51:26;15.10;;;8.20;;
11267;SDS011;49397;47.474;9.416;2023-02-24T05:54:03;18.30;;;8.20;;
11267;SDS011;49397;47.474;9.416;2023-02-24T05:56:33;17.03;;;7.93;;
11267;SDS011;49397;47.474;9.416;2023-02-24T05:59:00;11.10;;;7.63;;
11267;SDS011;49397;47.474;9.416;2023-02-24T06:01:31;12.73;;;7.10;;
11267;SDS011;49397;47.474;9.416;2023-02-24T06:03:59;9.00;;;6.77;;
11267;SDS011;49397;47.474;9.416;2023-02-24T06:06:37;12.53;;;8.20;;
11267;SDS011;49397;47.474;9.416;2023-02-24T06:09:05;17.67;;;8.40;;
11267;SDS011;49397;47.474;9.416;2023-02-24T06:11:38;17.07;;;9.47;;
11267;SDS011;49397;47.474;9.416;2023-02-24T06:14:06;10.23;;;7.53;;
11267;SDS011;49397;47.474;9.416;2023-02-24T06:16:33;14.63;;;8.37;;
11267;SDS011;49397;47.474;9.416;2023-02-24T06:18:59;12.23;;;7.83;;
11267;SDS011;49397;47.474;9.416;2023-02-24T06:21:25;14.83;;;7.63;;
11267;SDS011;49397;47.474;9.416;2023-02-24T06:23:54;13.23;;;7.77;;
11267;SDS011;49397;47.474;9.416;2023-02-24T06:26:21;8.57;;;7.10;;
11267;SDS011;49397;47.474;9.416;2023-02-24T06:28:47;14.57;;;7.57;;
11267;SDS011;49397;47.474;9.416;2023-02-24T06:31:18;10.10;;;6.10;;
11267;SDS011;49397;47.474;9.416;2023-02-24T06:33:45;14.50;;;6.73;;
11267;SDS011;49397;47.474;9.416;2023-02-24T06:36:11;13.30;;;7.20;;
11267;SDS011;49397;47.474;9.416;2023-02-24T06:38:38;15.10;;;7.00;;
11267;SDS011;49397;47.474;9.416;2023-02-24T06:41:05;14.80;;;6.97;;
11267;SDS011;49397;47.474;9.416;2023-02-24T06:43:38;14.40;;;7.27;;
11267;SDS011;49397;47.474;9.416;2023-02-24T06:46:08;12.57;;;6.80;;
11267;SDS011;49397;47.474;9.416;2023-02-24T06:48:37;9.70;;;6.10;;
11267;SDS011;49397;47.474;9.416;2023-02-24T06:51:07;14.60;;;6.70;;
11267;SDS011;49397;47.474;9.416;2023-02-24T06:53:34;12.73;;;7.63;;
11267;SDS011;49397;47.474;9.416;2023-02-24T06:56:07;12.70;;;7.80;;
11267;SDS011;49397;47.474;9.416;2023-02-24T06:58:41;12.97;;;7.23;;
11267;SDS011;49397;47.474;9.416;2023-02-24T07:01:15;15.80;;;7.33;;
11267;SDS011;49397;47.474;9.416;2023-02-24T07:03:43;11.77;;;7.03;;
11267;SDS011;49397;47.474;9.416;2023-02-24T07:06:39;14.50;;;6.83;;
11267;SDS011;49397;47.474;9.416;2023-02-24T07:09:07;15.03;;;7.80;;
11267;SDS011;49397;47.474;9.416;2023-02-24T07:11:35;10.67;;;6.63;;
11267;SDS011;49397;47.474;9.416;2023-02-24T07:14:01;11.07;;;6.77;;
11267;SDS011;49397;47.474;9.416;2023-02-24T07:16:30;13.07;;;7.33;;
11267;SDS011;49397;47.474;9.416;2023-02-24T07:18:57;11.70;;;7.10;;
11267;SDS011;49397;47.474;9.416;2023-02-24T07:21:24;11.10;;;7.63;;
11267;SDS011;49397;47.474;9.416;2023-02-24T07:23:52;10.83;;;8.03;;
11267;SDS011;49397;47.474;9.416;2023-02-24T07:26:24;11.47;;;7.33;;
11267;SDS011;49397;47.474;9.416;2023-02-24T07:28:52;13.80;;;8.77;;
11267;SDS011;49397;47.474;9.416;2023-02-24T07:31:22;14.40;;;7.47;;
11267;SDS011;49397;47.474;9.416;2023-02-24T07:33:53;13.47;;;8.00;;
11267;SDS011;49397;47.474;9.416;2023-02-24T07:36:21;13.27;;;7.17;;
11267;SDS011;49397;47.474;9.416;2023-02-24T07:38:51;16.23;;;7.07;;
11267;SDS011;49397;47.474;9.416;2023-02-24T07:41:18;10.00;;;7.13;;
11267;SDS011;49397;47.474;9.416;2023-02-24T07:43:47;11.07;;;6.23;;
11267;SDS011;49397;47.474;9.416;2023-02-24T07:46:17;10.13;;;7.13;;
11267;SDS011;49397;47.474;9.416;2023-02-24T07:48:46;12.47;;;7.43;;
11267;SDS011;49397;47.474;9.416;2023-02-24T07:51:13;14.10;;;7.73;;
11267;SDS011;49397;47.474;9.416;2023-02-24T07:53:40;14.93;;;8.37;;
11267;SDS011;49397;47.474;9.416;2023-02-24T07:56:07;21.00;;;9.53;;
11267;SDS011;49397;47.474;9.416;2023-02-24T07:58:40;14.43;;;8.07;;
11267;SDS011;49397;47.474;9.416;2023-02-24T08:01:07;10.90;;;7.83;;
11267;SDS011;49397;47.474;9.416;2023-02-24T08:03:34;14.43;;;8.70;;
11267;SDS011;49397;47.474;9.416;2023-02-24T08:06:05;19.47;;;12.37;;
11267;SDS011;49397;47.474;9.416;2023-02-24T08:08:43;17.50;;;10.53;;
11267;SDS011;49397;47.474;9.416;2023-02-24T08:11:40;13.77;;;9.07;;
11267;SDS011;49397;47.474;9.416;2023-02-24T08:14:07;13.87;;;8.60;;
11267;SDS011;49397;47.474;9.416;2023-02-24T08:16:44;18.30;;;10.97;;
11267;SDS011;49397;47.474;9.416;2023-02-24T08:19:12;21.23;;;12.87;;
11267;SDS011;49397;47.474;9.416;2023-02-24T08:21:44;27.93;;;13.43;;
11267;SDS011;49397;47.474;9.416;2023-02-24T08:24:18;24.17;;;13.83;;
11267;SDS011;49397;47.474;9.416;2023-02-24T08:26:52;21.17;;;12.00;;
11267;SDS011;49397;47.474;9.416;2023-02-24T08:29:36;19.43;;;11.57;;
11267;SDS011;49397;47.474;9.416;2023-02-24T08:35:02;20.43;;;11.43;;
11267;SDS011;49397;47.474;9.416;2023-02-24T08:37:30;19.67;;;12.17;;
11267;SDS011;49397;47.474;9.416;2023-02-24T08:40:10;16.83;;;11.00;;
11267;SDS011;49397;47.474;9.416;2023-02-24T08:42:54;20.90;;;12.63;;
11267;SDS011;49397;47.474;9.416;2023-02-24T08:45:23;24.27;;;12.80;;
11267;SDS011;49397;47.474;9.416;2023-02-24T08:47:53;21.17;;;12.10;;
11267;SDS011;49397;47.474;9.416;2023-02-24T08:50:27;22.07;;;13.10;;
11267;SDS011;49397;47.474;9.416;2023-02-24T08:52:58;22.07;;;13.47;;
11267;SDS011;49397;47.474;9.416;2023-02-24T08:55:25;22.40;;;12.67;;
11267;SDS011;49397;47.474;9.416;2023-02-24T08:57:57;21.17;;;11.80;;
11267;SDS011;49397;47.474;9.416;2023-02-24T09:00:27;16.70;;;11.60;;
11267;SDS011;49397;47.474;9.416;2023-02-24T09:03:16;16.97;;;11.37;;
11267;SDS011;49397;47.474;9.416;2023-02-24T09:06:05;20.97;;;12.13;;
11267;SDS011;49397;47.474;9.416;2023-02-24T09:08:37;18.50;;;11.97;;
11267;SDS011;49397;47.474;9.416;2023-02-24T09:11:08;21.40;;;11.73;;
11267;SDS011;49397;47.474;9.416;2023-02-24T09:13:39;16.10;;;11.53;;
11267;SDS011;49397;47.474;9.416;2023-02-24T09:16:22;19.30;;;11.70;;
11267;SDS011;49397;47.474;9.416;2023-02-24T09:18:49;17.10;;;11.37;;
11267;SDS011;49397;47.474;9.416;2023-02-24T09:21:47;22.63;;;12.27;;
11267;SDS011;49397;47.474;9.416;2023-02-24T09:24:13;16.80;;;11.87;;
11267;SDS011;49397;47.474;9.416;2023-02-24T09:26:38;19.70;;;12.33;;
11267;SDS011;49397;47.474;9.416;2023-02-24T09:29:13;24.40;;;12.53;;
11267;SDS011;49397;47.474;9.416;2023-02-24T09:32:01;18.23;;;12.53;;
11267;SDS011;49397;47.474;9.416;2023-02-24T09:36:58;18.87;;;12.27;;
11267;SDS011;49397;47.474;9.416;2023-02-24T09:39:36;26.00;;;13.70;;
11267;SDS011;49397;47.474;9.416;2023-02-24T09:42:17;21.47;;;12.47;;
11267;SDS011;49397;47.474;9.416;2023-02-24T09:44:45;20.77;;;13.43;;
11267;SDS011;49397;47.474;9.416;2023-02-24T09:50:02;19.63;;;13.20;;
11267;SDS011;49397;47.474;9.416;2023-02-24T09:52:41;18.77;;;13.60;;
11267;SDS011;49397;47.474;9.416;2023-02-24T09:58:17;21.93;;;13.07;;
11267;SDS011;49397;47.474;9.416;2023-02-24T10:09:55;17.40;;;12.83;;
11267;SDS011;49397;47.474;9.416;2023-02-24T10:12:45;21.53;;;12.60;;
11267;SDS011;49397;47.474;9.416;2023-02-24T10:15:25;18.57;;;13.57;;
11267;SDS011;49397;47.474;9.416;2023-02-24T10:18:34;20.20;;;13.17;;
11267;SDS011;49397;47.474;9.416;2023-02-24T10:29:56;27.20;;;13.77;;
11267;SDS011;49397;47.474;9.416;2023-02-24T10:35:17;22.87;;;13.57;;
11267;SDS011;49397;47.474;9.416;2023-02-24T10:37:44;20.90;;;12.97;;
11267;SDS011;49397;47.474;9.416;2023-02-24T10:40:11;17.63;;;12.30;;
11267;SDS011;49397;47.474;9.416;2023-02-24T10:42:45;18.13;;;13.83;;
11267;SDS011;49397;47.474;9.416;2023-02-24T10:47:51;17.83;;;14.07;;
11267;SDS011;49397;47.474;9.416;2023-02-24T10:50:23;16.90;;;13.40;;
11267;SDS011;49397;47.474;9.416;2023-02-24T10:52:53;17.07;;;11.80;;
11267;SDS011;49397;47.474;9.416;2023-02-24T10:58:14;22.37;;;13.40;;
11267;SDS011;49397;47.474;9.416;2023-02-24T11:00:52;19.13;;;12.60;;
11267;SDS011;49397;47.474;9.416;2023-02-24T11:03:36;18.20;;;12.70;;
11267;SDS011;49397;47.474;9.416;2023-02-24T11:06:25;17.20;;;13.03;;
11267;SDS011;49397;47.474;9.416;2023-02-24T11:09:16;17.20;;;12.00;;
11267;SDS011;49397;47.474;9.416;2023-02-24T11:11:51;17.10;;;13.17;;
11267;SDS011;49397;47.474;9.416;2023-02-24T11:14:48;16.80;;;11.73;;
11267;SDS011;49397;47.474;9.416;2023-02-24T11:17:45;24.17;;;13.27;;
11267;SDS011;49397;47.474;9.416;2023-02-24T11:20:17;20.20;;;13.00;;
11267;SDS011;49397;47.474;9.416;2023-02-24T11:22:50;25.10;;;13.70;;
11267;SDS011;49397;47.474;9.416;2023-02-24T11:25:32;20.33;;;14.10;;
11267;SDS011;49397;47.474;9.416;2023-02-24T11:27:58;19.50;;;14.37;;
11267;SDS011;49397;47.474;9.416;2023-02-24T11:41:22;17.53;;;12.43;;
11267;SDS011;49397;47.474;9.416;2023-02-24T11:43:55;19.23;;;12.37;;
11267;SDS011;49397;47.474;9.416;2023-02-24T11:46:37;23.70;;;14.90;;
11267;SDS011;49397;47.474;9.416;2023-02-24T11:49:16;22.53;;;14.00;;
11267;SDS011;49397;47.474;9.416;2023-02-24T11:51:54;23.07;;;12.57;;
11267;SDS011;49397;47.474;9.416;2023-02-24T11:54:21;19.50;;;13.30;;
11267;SDS011;49397;47.474;9.416;2023-02-24T11:56:52;19.27;;;12.77;;
11267;SDS011;49397;47.474;9.416;2023-02-24T11:59:41;19.93;;;13.73;;
11267;SDS011;49397;47.474;9.416;2023-02-24T12:04:54;21.53;;;13.07;;
11267;SDS011;49397;47.474;9.416;2023-02-24T12:07:28;20.47;;;13.23;;
11267;SDS011;49397;47.474;9.416;2023-02-24T12:10:13;17.47;;;12.13;;
11267;SDS011;49397;47.474;9.416;2023-02-24T12:16:05;20.63;;;12.93;;
11267;SDS011;49397;47.474;9.416;2023-02-24T12:18:46;18.83;;;13.67;;
11267;SDS011;49397;47.474;9.416;2023-02-24T12:21:22;17.87;;;12.73;;
11267;SDS011;49397;47.474;9.416;2023-02-24T12:23:55;21.87;;;14.07;;
11267;SDS011;49397;47.474;9.416;2023-02-24T12:26:33;18.83;;;12.60;;
11267;SDS011;49397;47.474;9.416;2023-02-24T12:37:26;19.37;;;12.77;;
11267;SDS011;49397;47.474;9.416;2023-02-24T12:40:01;17.67;;;12.27;;
11267;SDS011;49397;47.474;9.416;2023-02-24T12:51:19;21.43;;;12.93;;
11267;SDS011;49397;47.474;9.416;2023-02-24T12:53:56;22.10;;;12.87;;
11267;SDS011;49397;47.474;9.416;2023-02-24T12:59:14;15.33;;;11.77;;
11267;SDS011;49397;47.474;9.416;2023-02-24T13:04:53;22.30;;;13.07;;
11267;SDS011;49397;47.474;9.416;2023-02-24T13:12:45;22.37;;;13.93;;
11267;SDS011;49397;47.474;9.416;2023-02-24T13:15:17;23.23;;;13.37;;
11267;SDS011;49397;47.474;9.416;2023-02-24T13:17:46;18.23;;;13.10;;
11267;SDS011;49397;47.474;9.416;2023-02-24T13:20:24;20.27;;;13.67;;
11267;SDS011;49397;47.474;9.416;2023-02-24T13:22:58;20.33;;;13.23;;
11267;SDS011;49397;47.474;9.416;2023-02-24T13:25:33;21.10;;;13.73;;
11267;SDS011;49397;47.474;9.416;2023-02-24T13:31:00;18.50;;;12.60;;
11267;SDS011;49397;47.474;9.416;2023-02-24T13:33:32;19.77;;;14.10;;
11267;SDS011;49397;47.474;9.416;2023-02-24T13:36:20;24.40;;;13.80;;
11267;SDS011;49397;47.474;9.416;2023-02-24T13:46:25;19.43;;;14.80;;
11267;SDS011;49397;47.474;9.416;2023-02-24T13:51:44;21.30;;;14.50;;
11267;SDS011;49397;47.474;9.416;2023-02-24T13:56:55;25.73;;;15.33;;
11267;SDS011;49397;47.474;9.416;2023-02-24T13:59:42;20.33;;;14.00;;
11267;SDS011;49397;47.474;9.416;2023-02-24T14:02:17;21.70;;;14.83;;
11267;SDS011;49397;47.474;9.416;2023-02-24T14:04:55;21.63;;;14.53;;
11267;SDS011;49397;47.474;9.416;2023-02-24T14:07:30;24.53;;;14.63;;
11267;SDS011;49397;47.474;9.416;2023-02-24T14:10:00;23.43;;;15.80;;
11267;SDS011;49397;47.474;9.416;2023-02-24T14:12:30;23.57;;;14.80;;
11267;SDS011;49397;47.474;9.416;2023-02-24T14:14:58;18.80;;;13.87;;
11267;SDS011;49397;47.474;9.416;2023-02-24T14:17:29;23.83;;;14.87;;
11267;SDS011;49397;47.474;9.416;2023-02-24T14:22:46;24.50;;;14.93;;
11267;SDS011;49397;47.474;9.416;2023-02-24T14:25:13;23.27;;;14.70;;
11267;SDS011;49397;47.474;9.416;2023-02-24T14:27:41;23.27;;;15.27;;
11267;SDS011;49397;47.474;9.416;2023-02-24T14:30:54;24.77;;;15.33;;
11267;SDS011;49397;47.474;9.416;2023-02-24T14:33:02;26.60;;;16.33;;
11267;SDS011;49397;47.474;9.416;2023-02-24T14:35:32;23.90;;;15.40;;
11267;SDS011;49397;47.474;9.416;2023-02-24T14:38:00;22.67;;;14.73;;
11267;SDS011;49397;47.474;9.416;2023-02-24T14:40:26;25.20;;;15.73;;
11267;SDS011;49397;47.474;9.416;2023-02-24T14:42:52;25.90;;;15.07;;
11267;SDS011;49397;47.474;9.416;2023-02-24T14:45:20;24.23;;;15.27;;
11267;SDS011;49397;47.474;9.416;2023-02-24T14:47:53;25.43;;;14.47;;
11267;SDS011;49397;47.474;9.416;2023-02-24T14:50:25;25.53;;;15.37;;
11267;SDS011;49397;47.474;9.416;2023-02-24T14:55:30;26.00;;;15.83;;
11267;SDS011;49397;47.474;9.416;2023-02-24T15:00:35;20.00;;;14.20;;
11267;SDS011;49397;47.474;9.416;2023-02-24T15:03:09;22.83;;;15.00;;
11267;SDS011;49397;47.474;9.416;2023-02-24T15:05:42;26.23;;;15.17;;
11267;SDS011;49397;47.474;9.416;2023-02-24T15:08:29;27.80;;;15.53;;
11267;SDS011;49397;47.474;9.416;2023-02-24T15:10:59;24.30;;;14.40;;
11267;SDS011;49397;47.474;9.416;2023-02-24T15:13:39;20.73;;;14.80;;
11267;SDS011;49397;47.474;9.416;2023-02-24T15:16:18;21.10;;;15.53;;
11267;SDS011;49397;47.474;9.416;2023-02-24T15:18:51;22.13;;;15.80;;
11267;SDS011;49397;47.474;9.416;2023-02-24T15:21:28;22.43;;;16.03;;
11267;SDS011;49397;47.474;9.416;2023-02-24T15:23:59;25.10;;;15.23;;
11267;SDS011;49397;47.474;9.416;2023-02-24T15:26:26;25.17;;;16.17;;
11267;SDS011;49397;47.474;9.416;2023-02-24T15:29:10;23.83;;;16.60;;
11267;SDS011;49397;47.474;9.416;2023-02-24T15:31:38;22.03;;;14.70;;
11267;SDS011;49397;47.474;9.416;2023-02-24T15:34:03;22.33;;;14.47;;
11267;SDS011;49397;47.474;9.416;2023-02-24T15:36:30;29.03;;;15.43;;
11267;SDS011;49397;47.474;9.416;2023-02-24T15:39:06;25.47;;;15.43;;
11267;SDS011;49397;47.474;9.416;2023-02-24T15:41:44;23.10;;;14.60;;
11267;SDS011;49397;47.474;9.416;2023-02-24T15:44:24;21.97;;;15.33;;
11267;SDS011;49397;47.474;9.416;2023-02-24T15:46:53;23.23;;;14.87;;
11267;SDS011;49397;47.474;9.416;2023-02-24T15:49:19;25.33;;;15.83;;
11267;SDS011;49397;47.474;9.416;2023-02-24T15:51:46;25.33;;;16.00;;
11267;SDS011;49397;47.474;9.416;2023-02-24T15:54:18;22.07;;;15.47;;
11267;SDS011;49397;47.474;9.416;2023-02-24T15:56:49;24.63;;;14.97;;
11267;SDS011;49397;47.474;9.416;2023-02-24T15:59:16;22.43;;;14.70;;
11267;SDS011;49397;47.474;9.416;2023-02-24T16:01:43;25.93;;;16.60;;
11267;SDS011;49397;47.474;9.416;2023-02-24T16:04:08;19.57;;;13.93;;
11267;SDS011;49397;47.474;9.416;2023-02-24T16:06:34;21.33;;;14.57;;
11267;SDS011;49397;47.474;9.416;2023-02-24T16:09:12;29.70;;;15.80;;
11267;SDS011;49397;47.474;9.416;2023-02-24T16:11:40;25.73;;;16.07;;
11267;SDS011;49397;47.474;9.416;2023-02-24T16:14:11;25.70;;;16.90;;
11267;SDS011;49397;47.474;9.416;2023-02-24T16:16:39;22.57;;;14.47;;
11267;SDS011;49397;47.474;9.416;2023-02-24T16:19:05;26.47;;;16.60;;
11267;SDS011;49397;47.474;9.416;2023-02-24T16:21:31;25.77;;;14.80;;
11267;SDS011;49397;47.474;9.416;2023-02-24T16:23:57;20.83;;;15.73;;
11267;SDS011;49397;47.474;9.416;2023-02-24T16:26:22;21.60;;;15.13;;
11267;SDS011;49397;47.474;9.416;2023-02-24T16:28:52;19.47;;;14.23;;
11267;SDS011;49397;47.474;9.416;2023-02-24T16:31:20;22.33;;;14.23;;
11267;SDS011;49397;47.474;9.416;2023-02-24T16:33:46;23.43;;;14.40;;
11267;SDS011;49397;47.474;9.416;2023-02-24T16:36:12;24.30;;;14.57;;
11267;SDS011;49397;47.474;9.416;2023-02-24T16:38:38;27.33;;;15.03;;
11267;SDS011;49397;47.474;9.416;2023-02-24T16:41:06;20.20;;;13.43;;
11267;SDS011;49397;47.474;9.416;2023-02-24T16:43:31;23.83;;;15.73;;
11267;SDS011;49397;47.474;9.416;2023-02-24T16:46:02;21.57;;;13.37;;
11267;SDS011;49397;47.474;9.416;2023-02-24T16:48:30;25.37;;;13.60;;
11267;SDS011;49397;47.474;9.416;2023-02-24T16:51:01;20.33;;;13.57;;
11267;SDS011;49397;47.474;9.416;2023-02-24T16:53:28;21.03;;;13.47;;
11267;SDS011;49397;47.474;9.416;2023-02-24T16:55:54;20.27;;;13.50;;
11267;SDS011;49397;47.474;9.416;2023-02-24T16:58:20;27.73;;;16.03;;
11267;SDS011;49397;47.474;9.416;2023-02-24T17:00:48;26.70;;;14.93;;
11267;SDS011;49397;47.474;9.416;2023-02-24T17:05:48;24.17;;;14.50;;
11267;SDS011;49397;47.474;9.416;2023-02-24T17:08:15;23.67;;;14.27;;
11267;SDS011;49397;47.474;9.416;2023-02-24T17:10:41;19.50;;;14.03;;
11267;SDS011;49397;47.474;9.416;2023-02-24T17:13:11;22.50;;;12.50;;
11267;SDS011;49397;47.474;9.416;2023-02-24T17:15:38;22.73;;;12.83;;
11267;SDS011;49397;47.474;9.416;2023-02-24T17:18:04;25.77;;;11.80;;
11267;SDS011;49397;47.474;9.416;2023-02-24T17:20:30;18.50;;;9.77;;
11267;SDS011;49397;47.474;9.416;2023-02-24T17:22:55;19.13;;;10.00;;
11267;SDS011;49397;47.474;9.416;2023-02-24T17:25:25;19.50;;;9.37;;
11267;SDS011;49397;47.474;9.416;2023-02-24T17:27:52;16.67;;;7.70;;
11267;SDS011;49397;47.474;9.416;2023-02-24T17:30:29;18.93;;;8.03;;
11267;SDS011;49397;47.474;9.416;2023-02-24T17:32:57;21.30;;;6.53;;